Terminal Aerodrome Forecast
Issued by NWS Wilmington, NC

Home | Current Version | Previous Version | Text Only | Print | Product List | Glossary On
Versions: 1 2 3 4 5 6 7 8 9 10 11 12 13 14 15 16 17 18
000
FTUS42 KILM 241731
TAFMYR
TAF
KMYR 241731Z 2418/2518 24010KT P6SM SCT025 BKN050
      TEMPO 2418/2420 BKN025
     FM242000 21012KT P6SM VCTS SCT030CB BKN070
     FM250300 22009KT P6SM SCT020 SCT040
     FM251000 25005KT P6SM BKN090 PROB30 2511/2512 4SM -TSRA
      OVC025CB
     FM251500 19008KT P6SM VCTS SCT035CB BKN100=

USA.gov is the U.S. government's official web portal to all federal, state and local government web resources and services.